createdAt,value
2018-05-27T00:00:45.529Z,74.73
2018-05-27T00:03:13.276Z,74.83
2018-05-27T00:05:40.991Z,75.00
2018-05-27T00:08:08.969Z,75.11
2018-05-27T00:10:37.128Z,74.89
2018-05-27T00:13:04.768Z,74.94
2018-05-27T00:15:32.389Z,74.98
2018-05-27T00:17:59.925Z,74.82
2018-05-27T00:20:27.392Z,74.72
2018-05-27T00:22:55.334Z,74.79
2018-05-27T00:25:23.270Z,75.05
2018-05-27T00:27:51.122Z,74.80
2018-05-27T00:30:18.947Z,74.58
2018-05-27T00:32:46.655Z,74.51
2018-05-27T00:35:15.317Z,74.51
2018-05-27T00:37:42.947Z,74.42
2018-05-27T00:40:10.557Z,74.46
2018-05-27T00:42:38.301Z,74.18
2018-05-27T00:45:06.339Z,74.27
2018-05-27T00:47:34.676Z,74.08
2018-05-27T00:50:02.539Z,74.29
2018-05-27T00:52:30.029Z,74.09
2018-05-27T00:54:57.509Z,74.30
2018-05-27T00:57:25.060Z,74.69
2018-05-27T00:59:52.522Z,74.71
2018-05-27T01:02:20.023Z,74.95
2018-05-27T01:04:47.478Z,75.16
2018-05-27T01:07:15.647Z,75.25
2018-05-27T01:09:44.663Z,75.26
2018-05-27T01:12:12.503Z,75.56
2018-05-27T01:14:40.361Z,75.66
2018-05-27T01:17:08.027Z,75.42
2018-05-27T01:19:35.521Z,75.36
2018-05-27T01:22:02.985Z,75.26
2018-05-27T01:24:30.504Z,75.48
2018-05-27T01:26:58.050Z,75.84
2018-05-27T01:29:25.541Z,76.41
2018-05-27T01:31:54.810Z,76.35
2018-05-27T01:34:22.376Z,76.50
2018-05-27T01:36:50.246Z,76.57
2018-05-27T01:39:19.191Z,76.45
2018-05-27T01:41:47.292Z,76.50
2018-05-27T01:44:15.100Z,76.11
2018-05-27T01:46:42.784Z,76.14
2018-05-27T01:49:11.087Z,76.07
2018-05-27T01:51:38.619Z,75.97
2018-05-27T01:54:06.459Z,75.76
2018-05-27T01:56:34.463Z,75.87
2018-05-27T01:59:02.495Z,76.19
2018-05-27T02:01:30.572Z,76.68
2018-05-27T02:03:58.832Z,76.89
2018-05-27T02:06:27.161Z,76.95
2018-05-27T02:08:54.693Z,77.11
2018-05-27T02:11:22.340Z,77.03
2018-05-27T02:13:50.397Z,77.09
2018-05-27T02:16:17.874Z,77.28
2018-05-27T02:18:45.360Z,77.29
2018-05-27T02:21:12.841Z,77.52
2018-05-27T02:23:40.303Z,77.41
2018-05-27T02:26:07.752Z,77.36
2018-05-27T02:28:35.231Z,77.50
2018-05-27T02:31:02.681Z,77.49
2018-05-27T02:33:30.177Z,77.61
2018-05-27T02:35:57.681Z,77.94
2018-05-27T02:38:25.199Z,78.07
2018-05-27T02:40:52.684Z,78.02
2018-05-27T02:43:20.140Z,77.85
2018-05-27T02:45:47.619Z,77.56
2018-05-27T02:48:15.348Z,77.44
2018-05-27T02:50:42.840Z,77.83
2018-05-27T02:53:10.299Z,78.03
2018-05-27T02:55:37.876Z,78.17
2018-05-27T02:58:05.355Z,78.48
2018-05-27T03:00:33.110Z,78.57
2018-05-27T03:03:00.576Z,78.50
2018-05-27T03:05:28.102Z,78.37
2018-05-27T03:07:55.594Z,78.22
2018-05-27T03:10:23.095Z,78.29
2018-05-27T03:12:50.553Z,78.41
2018-05-27T03:15:18.061Z,78.39
2018-05-27T03:17:45.592Z,78.47
2018-05-27T03:20:14.899Z,78.43
2018-05-27T03:22:43.542Z,78.42
2018-05-27T03:25:12.493Z,78.28
2018-05-27T03:27:41.306Z,77.98
2018-05-27T03:30:09.953Z,78.12
2018-05-27T03:32:38.963Z,78.01
2018-05-27T03:35:08.489Z,78.08
2018-05-27T03:37:38.910Z,77.61
2018-05-27T03:40:08.402Z,77.23
2018-05-27T03:42:38.594Z,76.74
2018-05-27T03:45:07.792Z,76.53
2018-05-27T03:47:36.927Z,76.24
2018-05-27T03:50:05.035Z,75.96
2018-05-27T03:52:34.974Z,75.73
2018-05-27T03:55:02.974Z,75.70
2018-05-27T03:57:31.156Z,75.61
2018-05-27T03:59:58.799Z,75.55
2018-05-27T04:02:26.780Z,75.67
2018-05-27T04:05:06.190Z,75.68
2018-05-27T04:07:46.791Z,75.84
2018-05-27T04:10:16.184Z,75.80
2018-05-27T04:12:44.709Z,75.81
2018-05-27T04:15:13.429Z,75.78
2018-05-27T04:17:43.194Z,75.73
2018-05-27T04:20:12.245Z,75.52
2018-05-27T04:22:41.645Z,75.14
2018-05-27T04:25:09.750Z,75.45
2018-05-27T04:27:37.522Z,75.54
2018-05-27T04:30:05.377Z,75.77
2018-05-27T04:32:33.553Z,75.22
2018-05-27T04:35:01.525Z,75.31
2018-05-27T04:37:31.168Z,75.20
2018-05-27T04:39:59.150Z,75.24
2018-05-27T04:42:26.640Z,74.76
2018-05-27T04:44:55.007Z,75.04
2018-05-27T04:47:25.297Z,74.87
2018-05-27T04:49:53.926Z,74.35
2018-05-27T04:52:22.380Z,73.85
2018-05-27T04:54:50.252Z,73.96
2018-05-27T04:57:18.283Z,74.32
2018-05-27T04:59:46.673Z,73.21
2018-05-27T05:02:15.359Z,73.06
2018-05-27T05:04:43.665Z,73.09
2018-05-27T05:07:13.162Z,73.00
2018-05-27T05:09:41.480Z,73.51
2018-05-27T05:12:09.968Z,73.13
2018-05-27T05:14:37.550Z,73.13
2018-05-27T05:17:06.311Z,73.10
2018-05-27T05:19:34.805Z,72.91
2018-05-27T05:22:03.435Z,72.75
2018-05-27T05:24:31.080Z,72.62
2018-05-27T05:26:58.564Z,72.52
2018-05-27T05:29:26.905Z,72.57
2018-05-27T05:31:55.051Z,72.22
2018-05-27T05:34:24.326Z,72.04
2018-05-27T05:36:53.429Z,72.06
2018-05-27T05:39:22.245Z,71.88
2018-05-27T05:41:50.622Z,71.53
2018-05-27T05:44:18.320Z,71.32
2018-05-27T05:46:46.236Z,71.29
2018-05-27T05:49:13.726Z,70.87
2018-05-27T05:51:41.575Z,70.97
2018-05-27T05:54:09.170Z,70.92
2018-05-27T05:56:36.622Z,70.80
2018-05-27T05:59:04.078Z,70.80
2018-05-27T06:01:31.541Z,70.27
2018-05-27T06:03:58.984Z,69.99
2018-05-27T06:06:26.546Z,69.45
2018-05-27T06:08:54.128Z,69.44
2018-05-27T06:11:21.600Z,69.84
2018-05-27T06:13:49.052Z,69.65
2018-05-27T06:16:16.699Z,69.78
2018-05-27T06:18:44.868Z,69.63
2018-05-27T06:21:12.314Z,69.48
2018-05-27T06:23:39.850Z,69.03
2018-05-27T06:26:07.505Z,68.41
2018-05-27T06:28:34.995Z,67.92
2018-05-27T06:31:02.454Z,67.53
2018-05-27T06:33:32.337Z,67.03
2018-05-27T06:35:59.806Z,66.02
2018-05-27T06:38:27.256Z,65.87
2018-05-27T06:40:54.752Z,65.48
2018-05-27T06:43:22.289Z,65.59
2018-05-27T06:45:49.746Z,65.58
2018-05-27T06:48:17.209Z,65.35
2018-05-27T06:50:44.654Z,65.02
2018-05-27T06:53:12.127Z,64.65
2018-05-27T06:55:39.564Z,63.30
2018-05-27T06:58:07.023Z,63.59
2018-05-27T07:00:34.509Z,63.44
2018-05-27T07:03:01.963Z,62.41
2018-05-27T07:05:29.411Z,62.00
2018-05-27T07:07:56.881Z,61.79
2018-05-27T07:10:24.336Z,61.92
2018-05-27T07:12:51.940Z,61.51
2018-05-27T07:15:19.706Z,60.96
2018-05-27T07:17:47.171Z,60.65
2018-05-27T07:20:14.671Z,59.70
2018-05-27T07:25:16.255Z,57.92
2018-05-27T07:27:43.765Z,57.80
2018-05-27T07:30:12.113Z,56.50
2018-05-27T07:32:39.592Z,55.81
2018-05-27T07:35:07.031Z,54.79
2018-05-27T07:37:35.054Z,54.83
2018-05-27T07:40:02.543Z,53.92
2018-05-27T07:42:30.135Z,53.80
2018-05-27T07:44:57.620Z,53.31
2018-05-27T07:47:25.102Z,53.21
2018-05-27T07:49:52.715Z,53.32
2018-05-27T07:52:20.199Z,53.03
2018-05-27T07:54:48.299Z,52.66
2018-05-27T07:57:15.859Z,51.84
2018-05-27T07:59:43.388Z,52.01
2018-05-27T08:02:10.848Z,50.84
2018-05-27T08:04:38.304Z,50.30
2018-05-27T08:07:06.557Z,49.78
2018-05-27T08:09:34.059Z,50.34
2018-05-27T08:12:01.621Z,49.59
2018-05-27T08:14:29.206Z,49.79
2018-05-27T08:16:56.859Z,48.46
2018-05-27T08:19:26.487Z,48.00
2018-05-27T08:21:54.275Z,48.76
2018-05-27T08:24:22.730Z,47.13
2018-05-27T08:26:50.231Z,46.99
2018-05-27T08:29:19.241Z,47.04
2018-05-27T08:31:50.150Z,45.98
2018-05-27T08:34:17.900Z,45.51
2018-05-27T08:36:45.419Z,43.59
2018-05-27T08:39:13.365Z,44.19
2018-05-27T08:41:40.844Z,44.33
2018-05-27T08:44:08.415Z,43.80
2018-05-27T08:46:35.859Z,43.03
2018-05-27T08:49:03.405Z,43.85
2018-05-27T08:51:34.474Z,42.41
2018-05-27T08:54:02.003Z,43.05
2018-05-27T08:56:31.650Z,42.71
2018-05-27T08:58:59.250Z,42.97
2018-05-27T09:01:29.021Z,42.22
2018-05-27T09:03:57.016Z,41.91
2018-05-27T09:06:24.471Z,41.07
2018-05-27T09:08:53.512Z,40.77
2018-05-27T09:11:21.424Z,41.51
2018-05-27T09:13:50.108Z,39.26
2018-05-27T09:16:18.538Z,37.86
2018-05-27T09:18:46.331Z,38.78
2018-05-27T09:21:15.036Z,38.43
2018-05-27T09:23:42.881Z,38.73
2018-05-27T09:26:12.073Z,39.01
2018-05-27T09:28:42.685Z,37.96
2018-05-27T09:31:13.385Z,38.50
2018-05-27T09:33:42.866Z,38.33
2018-05-27T09:36:11.447Z,37.21
2018-05-27T09:38:40.265Z,35.90
2018-05-27T09:41:09.180Z,35.55
2018-05-27T09:43:39.407Z,36.83
2018-05-27T09:46:10.558Z,35.90
2018-05-27T09:48:40.412Z,35.40
2018-05-27T09:51:08.148Z,34.37
2018-05-27T09:53:36.785Z,33.84
2018-05-27T09:56:04.279Z,34.08
2018-05-27T09:58:31.733Z,32.66
2018-05-27T10:00:59.556Z,33.90
2018-05-27T10:03:27.600Z,34.19
2018-05-27T10:05:56.073Z,33.58
2018-05-27T10:08:26.138Z,34.12
2018-05-27T10:10:54.182Z,34.84
2018-05-27T10:13:22.065Z,34.56
2018-05-27T10:15:50.044Z,35.12
2018-05-27T10:18:19.952Z,33.28
2018-05-27T10:20:50.115Z,35.81
2018-05-27T10:23:19.397Z,34.99
2018-05-27T10:25:48.403Z,32.75
2018-05-27T10:28:18.154Z,33.57
2018-05-27T10:30:45.871Z,32.39
2018-05-27T10:33:13.335Z,34.15
2018-05-27T10:35:40.819Z,37.05
2018-05-27T10:38:08.402Z,32.54
2018-05-27T10:40:35.831Z,34.07
2018-05-27T10:43:03.357Z,33.14
2018-05-27T10:45:30.828Z,32.67
2018-05-27T10:47:58.371Z,33.15
2018-05-27T10:50:25.863Z,31.50
2018-05-27T10:52:53.302Z,31.30
2018-05-27T10:55:20.771Z,30.78
2018-05-27T10:57:48.323Z,30.99
2018-05-27T11:00:15.815Z,30.54
2018-05-27T11:02:43.307Z,30.21
2018-05-27T11:05:10.742Z,29.27
2018-05-27T11:07:38.295Z,30.34
2018-05-27T11:10:05.774Z,28.86
2018-05-27T11:12:33.239Z,27.73
2018-05-27T11:15:00.682Z,28.83
2018-05-27T11:17:28.177Z,29.01
2018-05-27T11:19:55.830Z,27.18
2018-05-27T11:22:23.437Z,28.72
2018-05-27T11:24:50.933Z,26.56
2018-05-27T11:27:18.507Z,26.75
2018-05-27T11:29:46.699Z,27.15
2018-05-27T11:32:14.616Z,27.30
2018-05-27T11:34:42.121Z,27.83
2018-05-27T11:37:09.841Z,27.39
2018-05-27T11:39:37.327Z,26.20
2018-05-27T11:42:04.785Z,27.36
2018-05-27T11:44:32.801Z,26.19
2018-05-27T11:50:00.788Z,27.47
2018-05-27T11:52:36.078Z,29.54
2018-05-27T11:55:08.817Z,31.19
2018-05-27T11:57:38.707Z,30.63
2018-05-27T12:00:08.619Z,29.95
2018-05-27T12:02:38.079Z,29.95
2018-05-27T12:05:07.514Z,32.94
2018-05-27T12:07:37.947Z,32.84
2018-05-27T12:10:07.234Z,32.98
2018-05-27T12:12:39.356Z,33.16
2018-05-27T12:15:08.901Z,32.76
2018-05-27T12:17:38.524Z,32.02
2018-05-27T12:20:06.076Z,33.06
2018-05-27T12:22:33.526Z,31.37
2018-05-27T12:25:01.566Z,34.60
2018-05-27T12:27:29.038Z,32.78
2018-05-27T12:29:56.541Z,33.22
2018-05-27T12:32:23.999Z,34.47
2018-05-27T12:34:51.475Z,33.61
2018-05-27T12:37:18.938Z,33.53
2018-05-27T12:39:46.485Z,33.37
2018-05-27T12:42:13.998Z,34.39
2018-05-27T12:44:41.455Z,35.08
2018-05-27T12:47:08.917Z,34.36
2018-05-27T12:49:36.383Z,33.79
2018-05-27T12:52:03.866Z,34.79
2018-05-27T12:54:31.767Z,34.84
2018-05-27T12:56:59.273Z,36.02
2018-05-27T13:05:25.162Z,37.24
2018-05-27T13:07:52.688Z,37.95
2018-05-27T13:10:20.127Z,35.91
2018-05-27T13:12:47.600Z,35.84
2018-05-27T13:15:15.032Z,38.07
2018-05-27T13:17:43.083Z,39.35
2018-05-27T13:20:10.553Z,39.74
2018-05-27T13:22:37.985Z,39.43
2018-05-27T13:25:05.501Z,39.27
2018-05-27T13:27:32.996Z,39.63
2018-05-27T13:30:00.570Z,38.74
2018-05-27T13:32:28.025Z,38.38
2018-05-27T13:34:55.518Z,39.91
2018-05-27T13:37:22.978Z,37.28
2018-05-27T13:39:50.427Z,39.19
2018-05-27T13:42:17.897Z,38.61
2018-05-27T13:44:45.350Z,38.11
2018-05-27T13:47:12.774Z,39.07
2018-05-27T13:49:40.286Z,41.01
2018-05-27T13:52:07.745Z,41.22
2018-05-27T13:54:35.224Z,41.75
2018-05-27T13:57:02.692Z,39.71
2018-05-27T13:59:30.239Z,41.26
2018-05-27T14:01:57.771Z,40.55
2018-05-27T14:04:25.271Z,40.85
2018-05-27T14:06:52.732Z,39.72
2018-05-27T14:09:20.347Z,40.22
2018-05-27T14:11:47.890Z,40.35
2018-05-27T14:14:15.423Z,41.41
2018-05-27T14:16:42.894Z,40.61
2018-05-27T14:19:10.359Z,41.09
2018-05-27T14:21:37.825Z,41.14
2018-05-27T14:24:05.277Z,40.09
2018-05-27T14:26:32.825Z,40.65
2018-05-27T14:29:00.284Z,40.90
2018-05-27T14:31:27.721Z,40.05
2018-05-27T14:33:55.190Z,39.48
2018-05-27T14:36:22.617Z,39.31
2018-05-27T14:38:50.082Z,39.46
2018-05-27T14:41:17.556Z,39.33
2018-05-27T14:43:44.997Z,39.23
2018-05-27T14:46:12.473Z,39.25
2018-05-27T14:48:39.949Z,39.26
2018-05-27T14:51:07.383Z,38.70
2018-05-27T14:53:34.847Z,38.03
2018-05-27T14:56:02.336Z,37.48
2018-05-27T14:58:29.809Z,37.35
2018-05-27T15:00:57.237Z,37.01
2018-05-27T15:03:24.733Z,38.49
2018-05-27T15:05:52.179Z,37.22
2018-05-27T15:08:19.745Z,38.78
2018-05-27T15:10:47.187Z,37.16
2018-05-27T15:13:14.647Z,37.80
2018-05-27T15:15:42.173Z,37.60
2018-05-27T15:18:09.632Z,37.10
2018-05-27T15:20:37.072Z,37.11
2018-05-27T15:23:04.536Z,37.21
2018-05-27T15:25:33.243Z,36.55
2018-05-27T15:28:00.733Z,37.57
2018-05-27T15:30:28.276Z,37.35
2018-05-27T15:32:55.905Z,37.26
2018-05-27T15:35:23.561Z,37.12
2018-05-27T15:37:51.186Z,37.59
2018-05-27T15:40:18.670Z,38.73
2018-05-27T15:42:46.174Z,38.92
2018-05-27T15:45:14.140Z,38.96
2018-05-27T15:47:49.950Z,38.59
2018-05-27T15:50:17.502Z,37.65
2018-05-27T15:52:44.997Z,35.09
2018-05-27T15:55:13.503Z,34.18
2018-05-27T15:57:41.527Z,35.34
2018-05-27T16:00:13.425Z,33.99
2018-05-27T16:02:46.464Z,33.15
2018-05-27T16:05:25.082Z,34.36
2018-05-27T16:07:53.908Z,33.48
2018-05-27T16:10:21.400Z,32.72
2018-05-27T16:12:48.825Z,34.63
2018-05-27T16:15:16.270Z,34.32
2018-05-27T16:17:43.729Z,34.19
2018-05-27T16:20:11.433Z,35.31
2018-05-27T16:22:39.953Z,34.41
2018-05-27T16:25:07.426Z,34.41
2018-05-27T16:27:34.906Z,33.95
2018-05-27T16:30:02.550Z,33.60
2018-05-27T16:32:30.022Z,32.35
2018-05-27T16:34:57.554Z,33.23
2018-05-27T16:37:25.079Z,32.02
2018-05-27T16:39:52.622Z,29.71
2018-05-27T16:42:20.111Z,29.44
2018-05-27T16:44:47.609Z,29.40
2018-05-27T16:47:15.308Z,29.46
2018-05-27T16:49:42.829Z,29.70
2018-05-27T16:52:10.297Z,30.56
2018-05-27T16:54:37.751Z,31.85
2018-05-27T16:57:07.662Z,34.13
2018-05-27T16:59:35.284Z,36.56
2018-05-27T17:02:02.756Z,37.19
2018-05-27T17:04:30.203Z,38.39
2018-05-27T17:06:57.765Z,38.34
2018-05-27T17:09:25.251Z,38.47
2018-05-27T17:11:52.812Z,40.39
2018-05-27T17:14:20.276Z,40.33
2018-05-27T17:16:48.313Z,42.02
2018-05-27T17:19:15.788Z,42.87
2018-05-27T17:21:43.593Z,42.35
2018-05-27T17:24:11.339Z,42.78
2018-05-27T17:26:44.151Z,43.73
2018-05-27T17:29:12.706Z,44.38
2018-05-27T17:31:40.422Z,44.78
2018-05-27T17:34:08.150Z,44.09
2018-05-27T17:36:35.696Z,44.09
2018-05-27T17:39:03.212Z,44.44
2018-05-27T17:41:30.792Z,45.46
2018-05-27T17:43:58.264Z,45.45
2018-05-27T17:46:25.705Z,47.40
2018-05-27T17:48:53.171Z,48.56
2018-05-27T17:51:20.714Z,47.83
2018-05-27T17:53:48.181Z,49.33
2018-05-27T17:56:15.646Z,49.16
2018-05-27T17:58:46.010Z,49.74
2018-05-27T18:01:13.859Z,50.20
2018-05-27T18:03:41.397Z,49.56
2018-05-27T18:06:08.958Z,50.17
2018-05-27T18:08:36.603Z,50.36
2018-05-27T18:11:04.112Z,50.06
2018-05-27T18:13:31.695Z,50.25
2018-05-27T18:15:59.136Z,51.42
2018-05-27T18:18:26.589Z,51.29
2018-05-27T18:20:54.012Z,52.14
2018-05-27T18:23:21.518Z,51.52
2018-05-27T18:25:49.600Z,51.54
2018-05-27T18:28:17.053Z,52.07
2018-05-27T18:30:44.585Z,53.08
2018-05-27T18:33:12.330Z,53.21
2018-05-27T18:35:39.798Z,53.40
2018-05-27T18:38:07.257Z,53.54
2018-05-27T18:40:34.708Z,53.42
2018-05-27T18:43:03.543Z,53.96
2018-05-27T18:45:31.177Z,54.23
2018-05-27T18:47:58.680Z,54.51
2018-05-27T18:50:26.149Z,54.96
2018-05-27T18:52:53.634Z,54.82
2018-05-27T18:55:21.152Z,54.93
2018-05-27T18:57:48.612Z,55.21
2018-05-27T19:00:16.071Z,55.51
2018-05-27T19:02:45.713Z,56.20
2018-05-27T19:05:13.397Z,56.77
2018-05-27T19:07:40.902Z,57.72
2018-05-27T19:10:08.425Z,58.36
2018-05-27T19:12:36.887Z,58.57
2018-05-27T19:15:04.337Z,59.09
2018-05-27T19:17:31.900Z,59.68
2018-05-27T19:19:59.411Z,60.89
2018-05-27T19:22:27.114Z,62.18
2018-05-27T19:24:54.969Z,61.61
2018-05-27T19:27:22.554Z,61.87
2018-05-27T19:29:50.118Z,62.20
2018-05-27T19:32:17.734Z,62.33
2018-05-27T19:34:45.705Z,63.02
2018-05-27T19:37:13.744Z,63.90
2018-05-27T19:39:41.262Z,64.34
2018-05-27T19:42:08.790Z,65.00
2018-05-27T19:44:36.237Z,65.08
2018-05-27T19:47:04.051Z,65.43
2018-05-27T19:49:31.569Z,65.68
2018-05-27T19:51:59.033Z,65.68
2018-05-27T19:54:26.499Z,65.78
2018-05-27T19:56:54.004Z,65.87
2018-05-27T19:59:21.840Z,65.68
2018-05-27T20:01:49.325Z,65.76
2018-05-27T20:04:16.757Z,65.92
2018-05-27T20:06:44.198Z,65.68
2018-05-27T20:09:11.633Z,65.55
2018-05-27T20:11:39.075Z,65.73
2018-05-27T20:14:06.631Z,65.47
2018-05-27T20:16:34.094Z,65.52
2018-05-27T20:19:01.598Z,65.40
2018-05-27T20:21:29.114Z,65.70
2018-05-27T20:23:56.548Z,66.08
2018-05-27T20:26:24.042Z,66.49
2018-05-27T20:28:51.478Z,67.08
2018-05-27T20:31:18.902Z,67.45
2018-05-27T20:33:46.331Z,67.49
2018-05-27T20:36:13.778Z,67.65
2018-05-27T20:38:41.208Z,68.02
2018-05-27T20:41:08.684Z,68.20
2018-05-27T20:43:36.158Z,68.59
2018-05-27T20:46:03.611Z,68.80
2018-05-27T20:48:31.073Z,69.09
2018-05-27T20:50:58.707Z,69.22
2018-05-27T20:53:26.189Z,69.32
2018-05-27T20:55:53.745Z,69.79
2018-05-27T20:58:21.165Z,69.95
2018-05-27T21:00:49.372Z,70.09
2018-05-27T21:03:16.825Z,70.03
2018-05-27T21:05:44.279Z,69.85
2018-05-27T21:08:11.703Z,69.72
2018-05-27T21:10:39.210Z,69.68
2018-05-27T21:13:06.678Z,70.06
2018-05-27T21:15:34.119Z,70.06
2018-05-27T21:18:01.588Z,69.83
2018-05-27T21:20:29.033Z,69.49
2018-05-27T21:22:56.561Z,69.73
2018-05-27T21:25:24.047Z,69.63
2018-05-27T21:27:51.520Z,69.79
2018-05-27T21:30:18.997Z,69.31
2018-05-27T21:32:46.727Z,69.45
2018-05-27T21:35:14.181Z,69.72
2018-05-27T21:37:41.630Z,69.93
2018-05-27T21:40:10.238Z,69.96
2018-05-27T21:42:37.799Z,70.08
2018-05-27T21:45:05.722Z,70.26
2018-05-27T21:47:33.233Z,70.55
2018-05-27T21:50:00.711Z,71.04
2018-05-27T21:52:28.137Z,71.55
2018-05-27T21:54:55.742Z,71.99
2018-05-27T21:57:23.552Z,72.19
2018-05-27T21:59:50.980Z,72.30
2018-05-27T22:02:18.449Z,72.28
2018-05-27T22:04:45.924Z,72.38
2018-05-27T22:07:13.356Z,72.70
2018-05-27T22:09:41.652Z,72.59
2018-05-27T22:12:09.088Z,72.71
2018-05-27T22:14:36.681Z,72.69
2018-05-27T22:17:04.136Z,72.82
2018-05-27T22:19:31.798Z,72.82
2018-05-27T22:21:59.246Z,72.72
2018-05-27T22:24:26.725Z,72.68
2018-05-27T22:26:54.175Z,72.80
2018-05-27T22:29:21.799Z,72.87
2018-05-27T22:31:49.436Z,72.64
2018-05-27T22:34:16.879Z,73.32
2018-05-27T22:36:44.309Z,74.14
2018-05-27T22:39:11.849Z,74.50
2018-05-27T22:41:39.299Z,75.16
2018-05-27T22:44:06.769Z,75.22
2018-05-27T22:46:34.221Z,75.15
2018-05-27T22:49:01.680Z,75.03
2018-05-27T22:51:29.133Z,75.08
2018-05-27T22:53:56.569Z,74.73
2018-05-27T22:56:24.012Z,74.92
2018-05-27T22:58:52.012Z,74.75
2018-05-27T23:01:19.509Z,74.73
2018-05-27T23:03:46.954Z,75.00
2018-05-27T23:06:14.429Z,74.29
2018-05-27T23:08:41.875Z,74.72
2018-05-27T23:11:09.352Z,74.62
2018-05-27T23:13:36.799Z,74.65
2018-05-27T23:16:04.296Z,74.78
2018-05-27T23:18:31.777Z,75.09
2018-05-27T23:20:59.318Z,75.30
2018-05-27T23:23:26.777Z,76.27
2018-05-27T23:25:54.278Z,75.56
2018-05-27T23:28:21.840Z,75.67
2018-05-27T23:30:49.405Z,76.55
2018-05-27T23:33:17.742Z,76.58
2018-05-27T23:35:45.478Z,76.82
2018-05-27T23:38:12.985Z,76.55
2018-05-27T23:40:40.424Z,76.76
2018-05-27T23:43:07.874Z,77.20
2018-05-27T23:45:35.323Z,78.23
2018-05-27T23:48:02.826Z,78.42
2018-05-27T23:50:30.293Z,78.36
2018-05-27T23:52:57.782Z,78.77
2018-05-27T23:55:25.237Z,78.36
2018-05-27T23:57:52.742Z,78.60
